Time;durP1;ratioP1;P1;durP2;ratioP2;P2;SDS_P1;SDS_P2;PMS_P1;PMS_P2;Temp;Humidity;BMP_temperature;BMP_pressure;BME280_temperature;BME280_humidity;BME280_pressure;Samples;Min_cycle;Max_cycle;Signal;HPM_P1;HPM_P2
2021/09/02 00:02:09;;;;;;;12.93;9.67;;;16.00;99.90;;;;;;5096498;28;20537;-81
2021/09/02 00:04:35;;;;;;;10.30;9.30;;;16.10;99.90;;;;;;5096927;28;20561;-81
2021/09/02 00:07:02;;;;;;;11.73;9.90;;;16.10;99.90;;;;;;5096986;28;20529;-81
2021/09/02 00:09:28;;;;;;;10.77;9.80;;;16.20;99.90;;;;;;5095422;28;20481;-81
2021/09/02 00:11:56;;;;;;;10.00;9.10;;;16.20;99.90;;;;;;5096606;28;20931;-81
2021/09/02 00:14:22;;;;;;;11.67;9.70;;;16.20;99.90;;;;;;5096337;28;20525;-81
2021/09/02 00:16:49;;;;;;;9.80;8.80;;;16.30;99.90;;;;;;5096525;28;20532;-81
2021/09/02 00:19:17;;;;;;;10.80;9.80;;;16.20;99.90;;;;;;5096572;28;20545;-81
2021/09/02 00:21:44;;;;;;;10.10;9.30;;;16.30;99.90;;;;;;5096514;28;20567;-81
2021/09/02 00:24:10;;;;;;;9.60;8.60;;;16.30;99.90;;;;;;5096196;28;20568;-81
2021/09/02 00:26:40;;;;;;;9.80;8.90;;;16.30;99.90;;;;;;5096261;28;20541;-81
2021/09/02 00:29:06;;;;;;;11.07;8.80;;;16.30;99.90;;;;;;5096164;28;20793;-81
2021/09/02 00:31:33;;;;;;;9.90;9.00;;;16.30;99.90;;;;;;5096014;28;20533;-81
2021/09/02 00:34:00;;;;;;;10.10;9.20;;;16.30;99.90;;;;;;5096109;28;20476;-81
2021/09/02 00:36:27;;;;;;;9.83;8.87;;;16.30;99.90;;;;;;5095796;28;20545;-81
2021/09/02 00:38:54;;;;;;;10.23;9.23;;;16.30;99.90;;;;;;5095842;28;20957;-80
2021/09/02 00:41:21;;;;;;;9.77;8.87;;;16.30;99.90;;;;;;5092319;28;20537;-80
2021/09/02 00:43:48;;;;;;;9.60;8.60;;;16.20;99.90;;;;;;5081497;28;20470;-80
2021/09/02 00:46:14;;;;;;;11.17;9.80;;;16.20;99.90;;;;;;5091493;28;20479;-80
2021/09/02 00:48:42;;;;;;;10.30;9.30;;;16.30;99.90;;;;;;5088221;28;20489;-80
2021/09/02 00:51:09;;;;;;;10.47;9.47;;;16.20;99.90;;;;;;5094301;28;21008;-81
2021/09/02 00:53:37;;;;;;;10.33;9.23;;;16.20;99.90;;;;;;5094203;28;20526;-80
2021/09/02 00:56:04;;;;;;;9.80;8.90;;;16.20;99.90;;;;;;5092798;28;20541;-80
2021/09/02 00:58:31;;;;;;;8.70;7.90;;;16.20;99.90;;;;;;5093710;28;20478;-80
2021/09/02 01:00:57;;;;;;;9.67;8.70;;;16.20;99.90;;;;;;5094610;28;20537;-80
2021/09/02 01:03:24;;;;;;;9.23;8.27;;;16.20;99.90;;;;;;5094151;28;20883;-80
2021/09/02 01:05:52;;;;;;;9.70;8.70;;;16.20;99.90;;;;;;5094255;28;20554;-80
2021/09/02 01:08:19;;;;;;;10.00;9.00;;;16.20;99.90;;;;;;5094160;28;20516;-81
2021/09/02 01:10:49;;;;;;;10.33;9.07;;;16.20;99.90;;;;;;5094031;28;20542;-80
2021/09/02 01:13:16;;;;;;;12.00;9.07;;;16.30;99.90;;;;;;5094189;28;20537;-80
2021/09/02 01:15:43;;;;;;;11.10;8.60;;;16.20;99.90;;;;;;5094031;28;20451;-81
2021/09/02 01:18:09;;;;;;;9.77;8.97;;;16.20;99.90;;;;;;5094079;28;20521;-81
2021/09/02 01:20:36;;;;;;;8.90;8.00;;;16.20;99.90;;;;;;5094092;28;20438;-81
2021/09/02 01:23:05;;;;;;;9.73;8.23;;;16.20;99.90;;;;;;5093790;28;20526;-81
2021/09/02 01:25:34;;;;;;;9.37;8.57;;;16.20;99.90;;;;;;5094092;28;20503;-80
2021/09/02 01:28:03;;;;;;;9.20;8.37;;;16.20;99.90;;;;;;5093892;28;20482;-79
2021/09/02 01:30:30;;;;;;;10.73;9.60;;;16.10;99.90;;;;;;5093890;28;20529;-81
2021/09/02 01:32:57;;;;;;;10.83;9.83;;;16.10;99.90;;;;;;5093682;28;20542;-81
2021/09/02 01:35:24;;;;;;;10.17;8.83;;;16.10;99.90;;;;;;5093735;28;20525;-81
2021/09/02 01:37:54;;;;;;;9.30;8.50;;;16.10;99.90;;;;;;5093801;28;20442;-81
2021/09/02 01:40:23;;;;;;;9.93;8.93;;;16.10;99.90;;;;;;5094179;28;20443;-81
2021/09/02 01:42:51;;;;;;;10.87;8.50;;;16.00;99.90;;;;;;5077493;28;20542;-81
2021/09/02 01:45:50;;;;;;;10.40;9.50;;;16.00;99.90;;;;;;5089956;27;20513;-78
2021/09/02 01:48:16;;;;;;;8.90;8.10;;;16.00;99.90;;;;;;5069547;28;20534;-78
2021/09/02 01:50:43;;;;;;;10.00;9.10;;;16.10;99.90;;;;;;5069988;28;20531;-78
2021/09/02 01:53:13;;;;;;;8.00;7.30;;;16.10;99.90;;;;;;5070091;28;20494;-80
2021/09/02 01:55:40;;;;;;;8.47;7.67;;;16.10;99.90;;;;;;5069895;28;20447;-80
2021/09/02 01:58:07;;;;;;;8.57;7.77;;;16.20;99.90;;;;;;5069650;28;20874;-80
2021/09/02 02:00:35;;;;;;;9.53;8.27;;;16.20;99.90;;;;;;5069769;28;20551;-80
2021/09/02 02:03:03;;;;;;;7.87;7.20;;;16.20;99.90;;;;;;5069412;28;20471;-80
2021/09/02 02:05:31;;;;;;;8.97;7.50;;;16.10;99.90;;;;;;5069811;28;20566;-79
2021/09/02 02:07:57;;;;;;;9.03;7.97;;;16.10;99.90;;;;;;5069749;28;20934;-79
2021/09/02 02:10:27;;;;;;;8.60;7.73;;;16.00;99.90;;;;;;5069495;28;20510;-80
2021/09/02 02:12:54;;;;;;;8.33;7.53;;;16.00;99.90;;;;;;5069266;28;20444;-79
2021/09/02 02:15:21;;;;;;;8.27;7.47;;;16.00;99.90;;;;;;5069237;28;20443;-79
2021/09/02 02:17:48;;;;;;;10.03;7.97;;;15.90;99.90;;;;;;5061073;28;20551;-79
2021/09/02 02:20:15;;;;;;;16.93;8.60;;;15.90;99.90;;;;;;5064956;28;20523;-79
2021/09/02 02:22:43;;;;;;;9.00;7.93;;;15.90;99.90;;;;;;5069246;28;20539;-78
2021/09/02 02:25:12;;;;;;;7.80;7.03;;;15.80;99.90;;;;;;5069153;28;20571;-79
2021/09/02 02:27:39;;;;;;;8.70;7.90;;;15.80;99.90;;;;;;5068988;28;20475;-79
2021/09/02 02:30:07;;;;;;;8.40;7.57;;;15.80;99.90;;;;;;5069406;28;20480;-79
2021/09/02 02:32:34;;;;;;;9.10;8.20;;;15.70;99.90;;;;;;5069109;28;20887;-81
2021/09/02 02:35:00;;;;;;;9.87;8.20;;;15.60;99.90;;;;;;5069227;28;20527;-80
2021/09/02 02:37:28;;;;;;;9.30;8.30;;;15.60;99.90;;;;;;5069335;28;20535;-80
2021/09/02 02:39:55;;;;;;;8.27;7.40;;;15.60;99.90;;;;;;5068823;28;20483;-79
2021/09/02 02:42:21;;;;;;;7.77;7.07;;;15.60;99.90;;;;;;5069090;28;20542;-79
2021/09/02 02:44:48;;;;;;;8.07;7.23;;;15.60;99.90;;;;;;5068558;28;20575;-80
2021/09/02 02:47:16;;;;;;;10.47;8.13;;;15.60;99.90;;;;;;5068867;28;20538;-80
2021/09/02 02:49:43;;;;;;;7.80;7.00;;;15.60;99.90;;;;;;5068900;28;20534;-80
2021/09/02 02:52:10;;;;;;;7.90;7.20;;;15.50;99.90;;;;;;5068910;28;20501;-79
2021/09/02 02:54:37;;;;;;;7.50;6.80;;;15.50;99.90;;;;;;5068426;28;20539;-79
2021/09/02 02:57:05;;;;;;;7.37;6.73;;;15.50;99.90;;;;;;5055998;28;20531;-79
2021/09/02 02:59:31;;;;;;;7.90;6.90;;;15.40;99.90;;;;;;5055645;28;20878;-80
2021/09/02 03:01:58;;;;;;;7.30;6.60;;;15.40;99.90;;;;;;5055470;28;20531;-80
2021/09/02 03:04:24;;;;;;;7.77;7.07;;;15.40;99.90;;;;;;5054991;28;20559;-80
2021/09/02 03:06:51;;;;;;;8.80;7.90;;;15.40;99.90;;;;;;5055246;28;20551;-79
2021/09/02 03:09:18;;;;;;;8.27;7.47;;;15.50;99.90;;;;;;5054962;28;20544;-79
2021/09/02 03:11:45;;;;;;;8.93;7.83;;;15.50;99.90;;;;;;5055024;28;20444;-79
2021/09/02 03:14:12;;;;;;;7.67;6.93;;;15.50;99.90;;;;;;5055012;28;20531;-79
2021/09/02 03:16:38;;;;;;;6.93;6.33;;;15.50;99.90;;;;;;5054875;28;20556;-79
2021/09/02 03:19:05;;;;;;;8.63;7.83;;;15.40;99.90;;;;;;5041669;28;20480;-78
2021/09/02 03:21:31;;;;;;;7.93;7.20;;;15.40;99.90;;;;;;5054692;28;20532;-79
2021/09/02 03:23:58;;;;;;;8.40;7.60;;;15.40;99.90;;;;;;5054635;28;20535;-78
2021/09/02 03:26:24;;;;;;;8.30;7.47;;;15.50;99.90;;;;;;5054539;28;20931;-79
2021/09/02 03:28:52;;;;;;;7.50;6.60;;;15.50;99.90;;;;;;5054974;28;20883;-79
2021/09/02 03:31:19;;;;;;;8.67;7.37;;;15.50;99.90;;;;;;5054917;28;20535;-80
2021/09/02 03:33:45;;;;;;;9.37;7.23;;;15.50;99.90;;;;;;5054611;28;20498;-80
2021/09/02 03:36:12;;;;;;;8.20;7.30;;;15.60;99.90;;;;;;5054831;28;20476;-79
2021/09/02 03:38:39;;;;;;;11.70;7.30;;;15.60;99.90;;;;;;5054667;28;20543;-79
2021/09/02 03:41:05;;;;;;;9.70;8.10;;;15.60;99.90;;;;;;5054846;28;20536;-79
2021/09/02 03:43:32;;;;;;;7.90;7.07;;;15.50;99.90;;;;;;5054382;28;20781;-80
2021/09/02 03:45:59;;;;;;;7.77;6.80;;;15.50;99.90;;;;;;5054835;28;20562;-80
2021/09/02 03:48:26;;;;;;;8.60;7.60;;;15.50;99.90;;;;;;5054313;28;20476;-79
2021/09/02 03:50:53;;;;;;;8.70;7.77;;;15.50;99.90;;;;;;5054500;28;20940;-79
2021/09/02 03:53:19;;;;;;;8.20;7.47;;;15.50;99.90;;;;;;5054721;28;20547;-79
2021/09/02 03:55:46;;;;;;;7.90;7.13;;;15.50;99.90;;;;;;5054324;28;20981;-78
2021/09/02 03:58:12;;;;;;;8.20;7.40;;;15.50;99.90;;;;;;5054199;28;20523;-78
2021/09/02 04:00:39;;;;;;;8.57;7.70;;;15.50;99.90;;;;;;5054194;28;20475;-79
2021/09/02 04:03:07;;;;;;;8.10;7.33;;;15.50;99.90;;;;;;5054130;28;20527;-79
2021/09/02 04:05:34;;;;;;;12.93;8.90;;;15.60;99.90;;;;;;5053837;28;20563;-79
2021/09/02 04:08:00;;;;;;;9.83;7.73;;;15.50;99.90;;;;;;5053469;28;20874;-78
2021/09/02 04:10:27;;;;;;;9.03;8.10;;;15.50;99.90;;;;;;5053956;28;20540;-79
2021/09/02 04:12:54;;;;;;;8.93;8.03;;;15.40;99.90;;;;;;5053940;28;20535;-79
2021/09/02 04:15:20;;;;;;;8.23;6.97;;;15.40;99.90;;;;;;5053787;28;21038;-79
2021/09/02 04:17:47;;;;;;;9.73;8.07;;;15.40;99.90;;;;;;5045388;28;21039;-79
2021/09/02 04:20:15;;;;;;;8.77;7.87;;;15.40;99.90;;;;;;5049261;28;20548;-79
2021/09/02 04:22:41;;;;;;;10.90;8.90;;;15.40;99.90;;;;;;5053668;28;20539;-78
2021/09/02 04:25:09;;;;;;;11.07;7.87;;;15.40;99.90;;;;;;5053477;28;20971;-79
2021/09/02 04:27:36;;;;;;;9.20;8.30;;;15.40;99.90;;;;;;5053924;28;20535;-79
2021/09/02 04:30:03;;;;;;;9.40;8.50;;;15.40;99.90;;;;;;5053526;28;20544;-79
2021/09/02 04:32:29;;;;;;;14.47;8.60;;;15.40;99.90;;;;;;5053409;28;20487;-79
2021/09/02 04:34:56;;;;;;;10.57;8.50;;;15.40;99.90;;;;;;5053562;28;20483;-79
2021/09/02 04:37:23;;;;;;;8.90;8.03;;;15.50;99.90;;;;;;5053505;28;20536;-78
2021/09/02 04:39:50;;;;;;;8.83;8.03;;;15.50;99.90;;;;;;5053245;28;20923;-78
2021/09/02 04:42:16;;;;;;;11.10;8.00;;;15.60;99.90;;;;;;5053248;28;20535;-78
2021/09/02 04:44:43;;;;;;;9.53;7.47;;;15.60;99.90;;;;;;5052930;28;20894;-78
2021/09/02 04:47:09;;;;;;;8.83;7.93;;;15.70;99.90;;;;;;5053218;28;20476;-78
2021/09/02 04:49:36;;;;;;;9.80;8.80;;;15.70;99.90;;;;;;5053104;28;20882;-79
2021/09/02 04:52:03;;;;;;;9.20;8.30;;;15.80;99.90;;;;;;5052942;28;20527;-79
2021/09/02 04:54:30;;;;;;;13.03;9.77;;;15.80;99.90;;;;;;5052946;28;20538;-79
2021/09/02 04:56:57;;;;;;;22.23;18.73;;;15.80;99.90;;;;;;5053081;28;20476;-79
2021/09/02 04:59:24;;;;;;;14.90;10.67;;;15.80;99.90;;;;;;5053163;28;20487;-79
2021/09/02 05:01:50;;;;;;;11.33;9.27;;;15.90;99.90;;;;;;5052817;28;20547;-82
2021/09/02 05:04:17;;;;;;;10.67;8.37;;;15.90;99.90;;;;;;5051182;28;20885;-80
2021/09/02 05:06:43;;;;;;;9.57;8.67;;;15.90;99.90;;;;;;5052848;28;20563;-80
2021/09/02 05:09:09;;;;;;;13.73;9.00;;;15.90;99.90;;;;;;5052748;28;20476;-80
2021/09/02 05:11:37;;;;;;;17.57;8.20;;;16.00;99.90;;;;;;5052646;28;20535;-78
2021/09/02 05:14:04;;;;;;;9.63;8.30;;;16.00;99.90;;;;;;5052612;28;20527;-79
2021/09/02 05:16:30;;;;;;;9.30;8.30;;;16.00;99.90;;;;;;5052793;28;20531;-79
2021/09/02 05:18:57;;;;;;;9.80;8.90;;;16.00;99.90;;;;;;5044104;28;20535;-79
2021/09/02 05:21:23;;;;;;;9.97;8.60;;;16.10;99.90;;;;;;5052730;28;20539;-80
2021/09/02 05:23:50;;;;;;;11.43;9.00;;;16.20;99.90;;;;;;5052574;28;20568;-80
2021/09/02 05:26:16;;;;;;;10.70;8.80;;;16.20;99.90;;;;;;5052519;28;20907;-82
2021/09/02 05:28:44;;;;;;;10.77;8.77;;;16.30;99.90;;;;;;5052677;28;20479;-79
2021/09/02 05:31:11;;;;;;;11.90;9.17;;;16.30;99.90;;;;;;5052669;28;20489;-80
2021/09/02 05:33:37;;;;;;;9.97;8.93;;;16.30;99.90;;;;;;5052635;28;20553;-78
2021/09/02 05:36:05;;;;;;;16.00;10.30;;;16.30;99.90;;;;;;5052292;28;20531;-78
2021/09/02 05:38:31;;;;;;;11.27;9.40;;;16.30;99.90;;;;;;5052479;28;20882;-78
2021/09/02 05:40:58;;;;;;;11.10;9.70;;;16.30;99.90;;;;;;5052361;28;20527;-79
2021/09/02 05:43:24;;;;;;;12.90;9.67;;;16.30;99.90;;;;;;5050165;28;20480;-80
2021/09/02 05:45:52;;;;;;;8.97;8.07;;;16.40;99.90;;;;;;5052288;28;20563;-80
2021/09/02 05:48:19;;;;;;;13.23;8.83;;;16.50;99.90;;;;;;5052322;28;20452;-80
2021/09/02 05:50:45;;;;;;;12.90;10.20;;;16.60;99.90;;;;;;5052358;28;20480;-80
2021/09/02 05:53:12;;;;;;;9.90;8.40;;;16.70;99.90;;;;;;5052123;28;20510;-80
2021/09/02 05:55:38;;;;;;;10.83;9.10;;;16.80;99.90;;;;;;5051864;28;20563;-80
2021/09/02 05:58:05;;;;;;;10.83;8.80;;;16.90;99.90;;;;;;5051986;28;20456;-80
2021/09/02 06:00:32;;;;;;;9.70;8.70;;;17.00;99.90;;;;;;5052073;28;20536;-80
2021/09/02 06:02:59;;;;;;;12.47;8.23;;;17.10;99.90;;;;;;5052182;28;20480;-78
2021/09/02 06:05:27;;;;;;;11.77;9.50;;;17.20;99.90;;;;;;5052122;28;20518;-78
2021/09/02 06:07:53;;;;;;;11.87;8.63;;;17.30;99.90;;;;;;5052287;28;20451;-79
2021/09/02 06:10:20;;;;;;;12.80;8.33;;;17.40;99.90;;;;;;5052186;28;20532;-79
2021/09/02 06:12:46;;;;;;;10.03;8.33;;;17.50;99.90;;;;;;5052151;28;20472;-78
2021/09/02 06:15:13;;;;;;;9.40;8.50;;;17.60;99.90;;;;;;5052208;28;20543;-79
2021/09/02 06:17:39;;;;;;;8.50;7.60;;;17.70;99.90;;;;;;5045069;28;20539;-81
2021/09/02 06:20:09;;;;;;;9.53;8.50;;;17.80;99.90;;;;;;5051476;28;20444;-79
2021/09/02 06:22:35;;;;;;;10.97;7.37;;;17.90;99.90;;;;;;5052030;28;20476;-80
2021/09/02 06:25:02;;;;;;;9.30;7.67;;;18.10;99.90;;;;;;5051750;28;20475;-80
2021/09/02 06:27:29;;;;;;;9.00;8.10;;;18.40;99.90;;;;;;5052118;28;20854;-80
2021/09/02 06:29:55;;;;;;;8.30;7.43;;;18.60;99.90;;;;;;5052248;28;20527;-78
2021/09/02 06:32:22;;;;;;;10.73;8.57;;;18.80;99.90;;;;;;5055708;28;20536;-82
2021/09/02 06:34:49;;;;;;;7.30;6.60;;;19.00;99.90;;;;;;5042879;28;20579;-83
2021/09/02 06:37:17;;;;;;;11.03;9.07;;;19.20;99.90;;;;;;5054629;28;20552;-83
2021/09/02 06:39:44;;;;;;;9.10;8.20;;;19.30;99.90;;;;;;5055179;28;20525;-83
2021/09/02 06:42:10;;;;;;;11.10;8.50;;;19.40;99.90;;;;;;5054694;28;20570;-82
2021/09/02 06:44:37;;;;;;;14.90;9.37;;;19.60;99.90;;;;;;5055661;28;21065;-83
2021/09/02 06:47:04;;;;;;;7.37;6.67;;;19.70;99.90;;;;;;5055519;28;20567;-83
2021/09/02 06:49:30;;;;;;;14.67;9.07;;;19.90;99.90;;;;;;5055663;28;20528;-83
2021/09/02 06:51:57;;;;;;;14.03;8.63;;;20.00;99.90;;;;;;5055026;28;20522;-83
2021/09/02 06:54:25;;;;;;;9.20;7.10;;;20.10;99.90;;;;;;5055237;28;20488;-83
2021/09/02 06:56:52;;;;;;;15.43;8.40;;;20.20;99.90;;;;;;5054768;28;20457;-83
2021/09/02 06:59:19;;;;;;;8.80;7.60;;;20.20;99.90;;;;;;5054864;28;20491;-83
2021/09/02 07:01:46;;;;;;;8.30;7.50;;;20.40;99.90;;;;;;5055103;28;20520;-83
2021/09/02 07:04:13;;;;;;;8.03;7.27;;;20.50;99.90;;;;;;5052825;28;20536;-83
2021/09/02 07:06:39;;;;;;;7.67;6.73;;;20.60;99.90;;;;;;5052717;28;21156;-82
2021/09/02 07:09:06;;;;;;;10.03;7.77;;;20.80;99.90;;;;;;5053119;28;20506;-82
2021/09/02 07:11:34;;;;;;;8.73;7.80;;;20.80;99.90;;;;;;5054331;28;20476;-82
2021/09/02 07:14:03;;;;;;;9.10;8.20;;;21.00;99.90;;;;;;5054691;28;20472;-82
2021/09/02 07:16:30;;;;;;;10.93;8.77;;;21.10;99.90;;;;;;5054855;28;20847;-82
2021/09/02 07:18:56;;;;;;;9.87;7.63;;;21.20;99.90;;;;;;5032273;28;20534;-82
2021/09/02 07:21:23;;;;;;;8.90;7.47;;;21.20;99.90;;;;;;5053396;28;20546;-82
2021/09/02 07:23:49;;;;;;;8.73;7.93;;;21.30;99.90;;;;;;5054256;28;20476;-82
2021/09/02 07:26:16;;;;;;;7.87;7.20;;;21.30;99.90;;;;;;5054378;28;20518;-83
2021/09/02 07:28:44;;;;;;;9.13;7.50;;;21.40;99.90;;;;;;5054484;28;20874;-82
2021/09/02 07:31:10;;;;;;;10.10;8.00;;;21.40;99.90;;;;;;5053534;28;20575;-83
2021/09/02 07:33:37;;;;;;;9.83;7.60;;;21.40;99.90;;;;;;5054211;28;20861;-83
2021/09/02 07:36:03;;;;;;;9.70;7.60;;;21.40;99.90;;;;;;5053988;28;20904;-82
2021/09/02 07:38:30;;;;;;;10.60;8.10;;;21.50;99.90;;;;;;5054188;28;20531;-83
2021/09/02 07:40:57;;;;;;;9.47;8.07;;;21.40;99.90;;;;;;5053328;28;20453;-83
2021/09/02 07:43:23;;;;;;;12.20;7.67;;;21.40;99.90;;;;;;5053832;28;20539;-82
2021/09/02 07:45:51;;;;;;;9.30;7.37;;;21.40;99.90;;;;;;5053915;28;20562;-82
2021/09/02 07:48:18;;;;;;;8.33;7.47;;;21.40;99.90;;;;;;5053703;28;20449;-82
2021/09/02 07:50:44;;;;;;;8.13;7.33;;;21.40;99.90;;;;;;5053569;28;20527;-82
2021/09/02 07:53:11;;;;;;;7.00;6.30;;;21.50;99.90;;;;;;5053703;28;20551;-82
2021/09/02 07:55:37;;;;;;;9.60;7.17;;;21.50;99.90;;;;;;5053917;28;20448;-82
2021/09/02 07:58:04;;;;;;;6.77;6.17;;;21.50;99.90;;;;;;5053678;28;20510;-82
2021/09/02 08:00:31;;;;;;;9.63;6.83;;;21.50;99.90;;;;;;5053124;28;20520;-81
2021/09/02 08:02:59;;;;;;;8.53;7.70;;;21.50;99.90;;;;;;5053253;28;20472;-82
2021/09/02 08:05:25;;;;;;;7.80;6.60;;;21.60;99.90;;;;;;5053436;28;20999;-82
2021/09/02 08:07:53;;;;;;;7.83;7.00;;;21.60;99.90;;;;;;5053614;28;20480;-82
2021/09/02 08:10:22;;;;;;;8.20;7.17;;;21.70;99.90;;;;;;5053575;28;20448;-82
2021/09/02 08:12:49;;;;;;;7.43;6.73;;;21.70;99.90;;;;;;5053397;28;20544;-82
2021/09/02 08:15:17;;;;;;;8.77;6.60;;;21.70;99.90;;;;;;5053288;28;20548;-82
2021/09/02 08:17:44;;;;;;;7.90;7.10;;;21.60;99.90;;;;;;5045415;28;20823;-82
2021/09/02 08:20:14;;;;;;;7.83;6.87;;;21.60;99.90;;;;;;5053234;28;20543;-82
2021/09/02 08:22:41;;;;;;;9.53;6.87;;;21.60;99.90;;;;;;5053295;28;20495;-82
2021/09/02 08:25:10;;;;;;;9.93;7.10;;;21.60;99.90;;;;;;5053132;28;20543;-82
2021/09/02 08:27:37;;;;;;;8.23;7.43;;;21.60;99.90;;;;;;5053053;28;20563;-82
2021/09/02 08:30:04;;;;;;;14.03;7.93;;;21.60;99.90;;;;;;5053085;28;20476;-82
2021/09/02 08:32:31;;;;;;;10.47;7.80;;;21.60;99.90;;;;;;5053183;28;20487;-82
2021/09/02 08:34:57;;;;;;;7.87;7.00;;;21.60;99.90;;;;;;5053039;28;20535;-82
2021/09/02 08:37:25;;;;;;;10.13;7.20;;;21.60;99.90;;;;;;5053064;28;20491;-82
2021/09/02 08:39:52;;;;;;;9.33;6.83;;;21.50;99.90;;;;;;5053002;28;20539;-82
2021/09/02 08:42:19;;;;;;;9.77;7.30;;;21.50;99.90;;;;;;5052496;28;20939;-82
2021/09/02 08:44:46;;;;;;;10.63;7.50;;;21.40;99.90;;;;;;5052666;28;20534;-82
2021/09/02 08:47:13;;;;;;;6.80;5.70;;;21.40;99.90;;;;;;5052612;28;20571;-82
2021/09/02 08:49:40;;;;;;;7.87;7.03;;;21.30;99.90;;;;;;5052949;28;20583;-82
2021/09/02 08:52:06;;;;;;;9.17;7.60;;;21.30;99.90;;;;;;5052748;28;20864;-82
2021/09/02 08:54:34;;;;;;;7.70;6.90;;;21.30;99.90;;;;;;5038646;28;20524;-82
2021/09/02 08:57:01;;;;;;;10.80;7.43;;;21.30;99.90;;;;;;5052420;28;20535;-82
2021/09/02 08:59:27;;;;;;;10.10;7.10;;;21.40;99.90;;;;;;5052802;28;20476;-82
2021/09/02 09:01:54;;;;;;;7.77;6.40;;;21.40;99.90;;;;;;5052764;28;20538;-83
2021/09/02 09:04:21;;;;;;;9.63;7.00;;;21.40;99.90;;;;;;5052438;28;20480;-83
2021/09/02 09:06:47;;;;;;;10.33;6.90;;;21.40;99.90;;;;;;5052292;28;21089;-83
2021/09/02 09:09:15;;;;;;;10.43;7.00;;;21.40;99.90;;;;;;5051370;28;20527;-82
2021/09/02 09:11:48;;;;;;;7.67;6.90;;;21.40;99.90;;;;;;5051350;28;20547;-82
2021/09/02 09:14:17;;;;;;;7.63;6.80;;;21.30;99.90;;;;;;5050263;28;20444;-82
2021/09/02 09:16:50;;;;;;;7.30;6.60;;;21.10;99.90;;;;;;5052395;28;20448;-82
2021/09/02 09:19:37;;;;;;;8.90;7.47;;;20.90;99.90;;;;;;5045066;28;20479;-82
2021/09/02 09:22:05;;;;;;;9.37;6.50;;;20.80;99.90;;;;;;5052196;28;20443;-82
2021/09/02 09:24:43;;;;;;;7.10;6.37;;;20.70;99.90;;;;;;5052390;28;20491;-82
2021/09/02 09:27:11;;;;;;;7.57;6.87;;;20.60;99.90;;;;;;5052028;28;20922;-82
2021/09/02 09:29:38;;;;;;;9.10;6.73;;;20.50;99.90;;;;;;5051955;28;20448;-82
2021/09/02 09:32:13;;;;;;;8.20;7.40;;;20.40;99.90;;;;;;5052120;28;20880;-82
2021/09/02 09:34:48;;;;;;;6.67;6.17;;;20.40;99.90;;;;;;5039630;28;20930;-82
2021/09/02 09:37:15;;;;;;;7.53;6.83;;;20.30;99.90;;;;;;5052003;28;20450;-82
2021/09/02 09:39:43;;;;;;;6.90;6.20;;;20.30;99.90;;;;;;5052093;28;20456;-82
2021/09/02 09:42:12;;;;;;;6.73;6.13;;;20.20;99.90;;;;;;5051927;28;20440;-83
2021/09/02 09:44:40;;;;;;;7.43;6.73;;;20.10;99.90;;;;;;5051740;28;20902;-82
2021/09/02 09:47:10;;;;;;;7.33;6.73;;;19.90;99.90;;;;;;5051573;28;20472;-82
2021/09/02 09:49:49;;;;;;;7.70;7.00;;;19.90;99.90;;;;;;5052038;28;20448;-82
2021/09/02 09:52:29;;;;;;;8.57;6.80;;;19.90;99.90;;;;;;5049730;28;20535;-82
2021/09/02 09:55:04;;;;;;;6.70;6.10;;;19.90;99.90;;;;;;5051643;28;20539;-82
2021/09/02 09:57:33;;;;;;;7.67;6.97;;;19.80;99.90;;;;;;5051736;28;20447;-82
2021/09/02 10:00:02;;;;;;;8.37;7.67;;;19.70;99.90;;;;;;5051792;28;20444;-82
2021/09/02 10:02:30;;;;;;;8.27;7.47;;;19.60;99.90;;;;;;5051302;28;20455;-82
2021/09/02 10:04:58;;;;;;;9.43;7.70;;;19.60;99.90;;;;;;5051004;28;20448;-82
2021/09/02 10:07:25;;;;;;;8.77;8.07;;;19.60;99.90;;;;;;5055305;28;20479;-82
2021/09/02 10:09:53;;;;;;;7.30;6.80;;;19.60;99.90;;;;;;5055612;28;20866;-81
2021/09/02 10:12:22;;;;;;;7.60;7.03;;;19.60;99.90;;;;;;5055238;28;20527;-82
2021/09/02 10:14:51;;;;;;;8.60;7.90;;;19.70;99.90;;;;;;5055710;28;20539;-82
2021/09/02 10:17:17;;;;;;;7.67;6.90;;;19.80;99.90;;;;;;5051581;28;20453;-82
2021/09/02 10:19:46;;;;;;;7.80;7.13;;;19.90;99.90;;;;;;5052220;28;20532;-82
2021/09/02 10:22:13;;;;;;;8.63;6.90;;;19.90;99.90;;;;;;5052980;28;20542;-82
2021/09/02 10:24:41;;;;;;;7.10;6.60;;;19.90;99.90;;;;;;5055358;28;20531;-82
2021/09/02 10:27:36;;;;;;;7.47;6.87;;;19.90;99.90;;;;;;5055152;28;20483;-82
2021/09/02 10:30:28;;;;;;;8.17;5.80;;;19.90;99.90;;;;;;5055440;28;20498;-82
2021/09/02 10:32:56;;;;;;;7.30;6.60;;;19.90;99.90;;;;;;5044758;28;20858;-82
2021/09/02 10:35:37;;;;;;;7.50;6.80;;;19.90;99.90;;;;;;5055306;28;20982;-82
2021/09/02 10:38:05;;;;;;;7.07;6.50;;;19.90;99.90;;;;;;5055202;28;20793;-82
2021/09/02 10:40:45;;;;;;;8.37;7.67;;;19.90;99.90;;;;;;5055135;28;20455;-82
2021/09/02 10:43:12;;;;;;;7.10;6.40;;;19.90;99.90;;;;;;5054854;28;20902;-82
2021/09/02 10:45:42;;;;;;;6.83;6.10;;;19.90;99.90;;;;;;5054806;28;20523;-81
2021/09/02 10:48:15;;;;;;;7.33;6.80;;;19.90;99.90;;;;;;5054969;28;20555;-82
2021/09/02 10:50:43;;;;;;;6.50;6.00;;;20.00;99.90;;;;;;5055011;28;20543;-82
2021/09/02 10:53:10;;;;;;;6.67;6.07;;;20.00;99.90;;;;;;5054817;28;20529;-82
2021/09/02 10:55:40;;;;;;;6.57;5.97;;;20.00;99.90;;;;;;5052288;28;20448;-82
2021/09/02 10:58:08;;;;;;;8.60;7.80;;;20.00;99.90;;;;;;5054663;28;20447;-83
2021/09/02 11:00:37;;;;;;;8.10;7.13;;;19.90;99.90;;;;;;5054751;28;20818;-82
2021/09/02 11:03:18;;;;;;;7.30;6.70;;;19.90;99.90;;;;;;5054789;28;20445;-83
2021/09/02 11:05:49;;;;;;;8.13;7.53;;;19.80;99.90;;;;;;5054780;28;20444;-83
2021/09/02 11:08:31;;;;;;;8.30;7.67;;;19.70;99.90;;;;;;5054537;28;20475;-82
2021/09/02 11:11:09;;;;;;;9.17;7.87;;;19.60;99.90;;;;;;5054603;28;20531;-82
2021/09/02 11:13:35;;;;;;;8.70;7.90;;;19.60;99.90;;;;;;5054669;28;20538;-82
2021/09/02 11:16:08;;;;;;;8.60;7.73;;;19.60;99.90;;;;;;5054262;28;20519;-82
2021/09/02 11:18:42;;;;;;;8.97;8.07;;;19.70;99.90;;;;;;5041311;28;20448;-82
2021/09/02 11:21:11;;;;;;;8.40;7.70;;;19.70;99.90;;;;;;5054430;28;20436;-83
2021/09/02 11:23:40;;;;;;;8.03;6.90;;;19.70;99.90;;;;;;5054546;28;20531;-83
2021/09/02 11:26:07;;;;;;;8.90;8.30;;;19.70;99.90;;;;;;5054428;28;20535;-82
2021/09/02 11:28:47;;;;;;;8.73;7.93;;;19.70;99.90;;;;;;5040970;28;20896;-84
2021/09/02 11:31:14;;;;;;;8.23;7.63;;;19.80;99.90;;;;;;5053988;28;20444;-82
2021/09/02 11:33:46;;;;;;;9.70;8.83;;;19.70;99.90;;;;;;5054498;28;20531;-82
2021/09/02 11:36:13;;;;;;;11.00;8.20;;;19.70;99.90;;;;;;5051745;28;20979;-83
2021/09/02 11:38:40;;;;;;;8.67;7.87;;;19.70;99.90;;;;;;5054246;28;20864;-83
2021/09/02 11:41:09;;;;;;;9.90;8.90;;;19.70;99.90;;;;;;5053384;28;20452;-83
2021/09/02 11:43:38;;;;;;;9.50;8.50;;;19.70;99.90;;;;;;5053877;28;20487;-83
2021/09/02 11:46:06;;;;;;;9.17;7.80;;;19.70;99.90;;;;;;5053794;28;20455;-83
2021/09/02 11:48:46;;;;;;;9.13;8.17;;;19.70;99.90;;;;;;5040808;28;20563;-83
2021/09/02 11:51:18;;;;;;;14.27;9.07;;;19.70;99.90;;;;;;5053814;28;20598;-83
2021/09/02 11:53:47;;;;;;;9.93;8.93;;;19.70;99.90;;;;;;5053855;28;20491;-83
2021/09/02 11:56:18;;;;;;;10.67;9.30;;;19.70;99.90;;;;;;5053347;28;20502;-82
2021/09/02 11:58:45;;;;;;;9.47;8.30;;;19.70;99.90;;;;;;5053993;28;20541;-82
2021/09/02 12:01:13;;;;;;;9.20;8.30;;;19.70;99.90;;;;;;5053460;28;20456;-82
2021/09/02 12:03:39;;;;;;;9.70;7.87;;;19.70;99.90;;;;;;5053641;28;20480;-83
2021/09/02 12:06:08;;;;;;;9.97;8.87;;;19.70;99.90;;;;;;5053546;28;20472;-83
2021/09/02 12:08:35;;;;;;;9.87;8.73;;;19.70;99.90;;;;;;5053558;28;20507;-82
2021/09/02 12:11:02;;;;;;;10.90;7.43;;;19.80;99.90;;;;;;5053210;28;20455;-82
2021/09/02 12:13:35;;;;;;;10.90;8.13;;;19.80;99.90;;;;;;5053765;28;20531;-83
2021/09/02 12:16:07;;;;;;;8.47;7.67;;;19.90;99.90;;;;;;5053308;28;20502;-82
2021/09/02 12:18:34;;;;;;;9.20;7.60;;;19.90;99.90;;;;;;5040222;28;20874;-82
2021/09/02 12:21:14;;;;;;;10.40;9.07;;;20.00;99.90;;;;;;5053078;28;20981;-82
2021/09/02 12:23:46;;;;;;;9.23;8.20;;;20.00;99.90;;;;;;5053283;28;20447;-83
2021/09/02 12:26:13;;;;;;;10.53;7.90;;;20.00;99.90;;;;;;5050755;28;20535;-82
2021/09/02 12:28:41;;;;;;;9.27;7.87;;;20.10;99.90;;;;;;5052395;28;20472;-83
2021/09/02 12:31:19;;;;;;;7.87;7.17;;;20.10;99.90;;;;;;5052945;28;20535;-83
2021/09/02 12:33:57;;;;;;;9.73;7.70;;;20.20;99.90;;;;;;5052994;28;20477;-83
2021/09/02 12:36:25;;;;;;;8.50;7.70;;;20.20;99.90;;;;;;5053106;28;20444;-83
2021/09/02 12:38:52;;;;;;;8.03;7.00;;;20.20;99.90;;;;;;5053050;28;20536;-83
2021/09/02 12:41:20;;;;;;;9.60;7.33;;;20.20;99.90;;;;;;5052895;28;20539;-83
2021/09/02 12:44:05;;;;;;;11.03;8.97;;;20.10;99.90;;;;;;5052697;28;20476;-83
2021/09/02 12:46:47;;;;;;;9.17;8.27;;;20.20;99.90;;;;;;5052961;28;20448;-83
2021/09/02 12:49:13;;;;;;;10.03;7.77;;;20.20;99.90;;;;;;5052634;28;20537;-83